EJU75ZX LDSP-LIRN
Flight info
| Callsign | EJU75ZX |
|---|---|
| Flight time | 0h 48m |
| Altitude | 37000 |
| Route | RILIM DCT AIOSA DCT PERAV DCT TOPNO DCT DOGUS DCT EKTOL |
| Aircraft | A20N/M-SDE2E3FGHIJ1RWXYZ/LB1 |
Departure
| Time | 2026-04-28 14:27 |
|---|---|
| Airport | Split Saint Jerome Airport (LDSP) |
Arrival
| Time | 2026-04-28 15:16 |
|---|---|
| Airport | Naples International Airport (LIRN) |
| Time | Latitude | Longitude | Altitude | Speed | Heading |
|---|---|---|---|---|---|
| 2026-04-28 14:15 | 43.53656 | 16.29744 | 61 ft | 0 kts | 94° |
| 2026-04-28 14:22 | 43.53657 | 16.29752 | 61 ft | 1 kts | 73° |
| 2026-04-28 14:22 | 43.53671 | 16.29759 | 61 ft | 3 kts | 342° |
| 2026-04-28 14:22 | 43.53686 | 16.29732 | 61 ft | 3 kts | 298° |
| 2026-04-28 14:23 | 43.53705 | 16.29719 | 62 ft | 3 kts | 0° |
| 2026-04-28 14:23 | 43.53732 | 16.29749 | 61 ft | 6 kts | 50° |
| 2026-04-28 14:23 | 43.53768 | 16.29809 | 61 ft | 9 kts | 52° |
| 2026-04-28 14:23 | 43.53812 | 16.29891 | 61 ft | 11 kts | 52° |
| 2026-04-28 14:24 | 43.53865 | 16.29986 | 61 ft | 13 kts | 53° |
| 2026-04-28 14:24 | 43.53936 | 16.30069 | 61 ft | 13 kts | 18° |
| 2026-04-28 14:24 | 43.54029 | 16.30109 | 61 ft | 14 kts | 18° |
| 2026-04-28 14:24 | 43.54110 | 16.30193 | 61 ft | 15 kts | 51° |
| 2026-04-28 14:25 | 43.54180 | 16.30316 | 60 ft | 16 kts | 52° |
| 2026-04-28 14:25 | 43.54254 | 16.30451 | 59 ft | 18 kts | 53° |
| 2026-04-28 14:25 | 43.54332 | 16.30598 | 57 ft | 19 kts | 53° |
| 2026-04-28 14:25 | 43.54413 | 16.30752 | 56 ft | 19 kts | 53° |
| 2026-04-28 14:26 | 43.54490 | 16.30895 | 55 ft | 14 kts | 52° |
| 2026-04-28 14:26 | 43.54540 | 16.30989 | 56 ft | 7 kts | 62° |
| 2026-04-28 14:26 | 43.54557 | 16.31047 | 56 ft | 5 kts | 31° |
| 2026-04-28 14:26 | 43.54567 | 16.31006 | 56 ft | 6 kts | 234° |
| 2026-04-28 14:27 | 43.54501 | 16.30887 | 55 ft | 41 kts | 232° |
| 2026-04-28 14:27 | 43.54173 | 16.30299 | 61 ft | 110 kts | 232° |
| 2026-04-28 14:27 | 43.53585 | 16.29239 | 175 ft | 154 kts | 232° |
| 2026-04-28 14:27 | 43.52950 | 16.28092 | 803 ft | 153 kts | 232° |
| 2026-04-28 14:28 | 43.52298 | 16.26918 | 1416 ft | 158 kts | 231° |
| 2026-04-28 14:28 | 43.51620 | 16.25703 | 2002 ft | 165 kts | 230° |
| 2026-04-28 14:28 | 43.50882 | 16.24391 | 2474 ft | 181 kts | 231° |
| 2026-04-28 14:28 | 43.50066 | 16.22936 | 2896 ft | 203 kts | 231° |
| 2026-04-28 14:29 | 43.49101 | 16.21407 | 3412 ft | 221 kts | 217° |
| 2026-04-28 14:29 | 43.47646 | 16.20634 | 3925 ft | 238 kts | 179° |
| 2026-04-28 14:29 | 43.45999 | 16.21254 | 4528 ft | 254 kts | 154° |
| 2026-04-28 14:29 | 43.44422 | 16.22465 | 5217 ft | 267 kts | 150° |
| 2026-04-28 14:30 | 43.42827 | 16.23742 | 6067 ft | 272 kts | 151° |
| 2026-04-28 14:30 | 43.41168 | 16.25020 | 6958 ft | 275 kts | 152° |
| 2026-04-28 14:30 | 43.39465 | 16.26281 | 7820 ft | 280 kts | 152° |
| 2026-04-28 14:30 | 43.37744 | 16.27521 | 8654 ft | 284 kts | 153° |
| 2026-04-28 14:31 | 43.35977 | 16.28770 | 9480 ft | 289 kts | 153° |
| 2026-04-28 14:31 | 43.34159 | 16.30041 | 10310 ft | 294 kts | 153° |
| 2026-04-28 14:31 | 43.32313 | 16.31324 | 10816 ft | 308 kts | 154° |
| 2026-04-28 14:31 | 43.30329 | 16.32694 | 11307 ft | 323 kts | 154° |
| 2026-04-28 14:32 | 43.28287 | 16.34100 | 12036 ft | 329 kts | 154° |
| 2026-04-28 14:32 | 43.26237 | 16.35508 | 12814 ft | 333 kts | 154° |
| 2026-04-28 14:32 | 43.24159 | 16.36934 | 13552 ft | 337 kts | 154° |
| 2026-04-28 14:32 | 43.22038 | 16.38387 | 14296 ft | 342 kts | 154° |
| 2026-04-28 14:33 | 43.19883 | 16.39862 | 15002 ft | 347 kts | 154° |
| 2026-04-28 14:33 | 43.17736 | 16.41331 | 15668 ft | 351 kts | 154° |
| 2026-04-28 14:33 | 43.15531 | 16.42837 | 16339 ft | 356 kts | 154° |
| 2026-04-28 14:33 | 43.13297 | 16.44361 | 17030 ft | 360 kts | 155° |
| 2026-04-28 14:34 | 43.08741 | 16.47467 | 18339 ft | 369 kts | 155° |
| 2026-04-28 14:34 | 43.06450 | 16.49027 | 18962 ft | 373 kts | 155° |
| 2026-04-28 14:34 | 43.04106 | 16.50621 | 19569 ft | 378 kts | 155° |
| 2026-04-28 14:35 | 43.01740 | 16.52230 | 20183 ft | 381 kts | 155° |
| 2026-04-28 14:35 | 42.99316 | 16.53877 | 20791 ft | 385 kts | 155° |
| 2026-04-28 14:35 | 42.96931 | 16.55495 | 21409 ft | 388 kts | 155° |
| 2026-04-28 14:35 | 42.94486 | 16.57153 | 21997 ft | 392 kts | 155° |
| 2026-04-28 14:36 | 42.92025 | 16.58820 | 22561 ft | 395 kts | 155° |
| 2026-04-28 14:36 | 42.89565 | 16.60485 | 23100 ft | 399 kts | 155° |
| 2026-04-28 14:36 | 42.87054 | 16.62181 | 23640 ft | 403 kts | 155° |
| 2026-04-28 14:36 | 42.84535 | 16.63883 | 24167 ft | 406 kts | 155° |
| 2026-04-28 14:37 | 42.81987 | 16.65603 | 24669 ft | 410 kts | 155° |
| 2026-04-28 14:37 | 42.79398 | 16.67349 | 25178 ft | 412 kts | 155° |
| 2026-04-28 14:37 | 42.76818 | 16.69087 | 25661 ft | 415 kts | 155° |
| 2026-04-28 14:37 | 42.74210 | 16.70844 | 26119 ft | 419 kts | 155° |
| 2026-04-28 14:38 | 42.71566 | 16.72622 | 26584 ft | 421 kts | 155° |
| 2026-04-28 14:38 | 42.68932 | 16.74390 | 27039 ft | 424 kts | 155° |
| 2026-04-28 14:38 | 42.66278 | 16.76172 | 27471 ft | 427 kts | 155° |
| 2026-04-28 14:38 | 42.63599 | 16.77969 | 27893 ft | 429 kts | 155° |
| 2026-04-28 14:39 | 42.60933 | 16.79756 | 28290 ft | 432 kts | 155° |
| 2026-04-28 14:39 | 42.58222 | 16.81570 | 28684 ft | 435 kts | 155° |
| 2026-04-28 14:39 | 42.55484 | 16.83400 | 29086 ft | 438 kts | 155° |
| 2026-04-28 14:39 | 42.52728 | 16.85241 | 29483 ft | 440 kts | 155° |
| 2026-04-28 14:40 | 42.49984 | 16.87072 | 29852 ft | 443 kts | 155° |
| 2026-04-28 14:40 | 42.48116 | 16.88317 | 30102 ft | 444 kts | 155° |
| 2026-04-28 14:40 | 42.44424 | 16.90776 | 30590 ft | 447 kts | 155° |
| 2026-04-28 14:40 | 42.41589 | 16.92664 | 30936 ft | 450 kts | 155° |
| 2026-04-28 14:41 | 42.38799 | 16.94519 | 31246 ft | 453 kts | 155° |
| 2026-04-28 14:41 | 42.35935 | 16.96421 | 31632 ft | 453 kts | 155° |
| 2026-04-28 14:41 | 42.33111 | 16.98294 | 32077 ft | 452 kts | 155° |
| 2026-04-28 14:41 | 42.30299 | 17.00158 | 32511 ft | 451 kts | 155° |
| 2026-04-28 14:42 | 42.27481 | 17.02026 | 32918 ft | 451 kts | 155° |
| 2026-04-28 14:42 | 42.24679 | 17.03879 | 33299 ft | 450 kts | 155° |
| 2026-04-28 14:42 | 42.21837 | 17.05757 | 33661 ft | 450 kts | 155° |
| 2026-04-28 14:42 | 42.19053 | 17.07596 | 34024 ft | 449 kts | 155° |
| 2026-04-28 14:43 | 42.16230 | 17.09458 | 34374 ft | 449 kts | 155° |
| 2026-04-28 14:43 | 42.13406 | 17.11321 | 34707 ft | 448 kts | 156° |
| 2026-04-28 14:43 | 42.10622 | 17.13153 | 35006 ft | 447 kts | 155° |
| 2026-04-28 14:43 | 42.07805 | 17.15005 | 35267 ft | 447 kts | 156° |
| 2026-04-28 14:44 | 42.04992 | 17.16852 | 35485 ft | 448 kts | 155° |
| 2026-04-28 14:44 | 42.02168 | 17.18704 | 35689 ft | 449 kts | 156° |
| 2026-04-28 14:44 | 41.99273 | 17.20270 | 35865 ft | 448 kts | 166° |
| 2026-04-28 14:44 | 41.96256 | 17.21176 | 36041 ft | 445 kts | 175° |
| 2026-04-28 14:45 | 41.93144 | 17.21415 | 36225 ft | 442 kts | 185° |
| 2026-04-28 14:45 | 41.90122 | 17.20993 | 36390 ft | 439 kts | 195° |
| 2026-04-28 14:45 | 41.87178 | 17.19935 | 36562 ft | 434 kts | 204° |
| 2026-04-28 14:45 | 41.84398 | 17.18277 | 36785 ft | 430 kts | 213° |
| 2026-04-28 14:46 | 41.81810 | 17.16274 | 36998 ft | 429 kts | 214° |
| 2026-04-28 14:46 | 41.76671 | 17.12156 | 37026 ft | 430 kts | 214° |
| 2026-04-28 14:47 | 41.71511 | 17.08077 | 37027 ft | 431 kts | 214° |
| 2026-04-28 14:47 | 41.66342 | 17.04030 | 37012 ft | 431 kts | 214° |
| 2026-04-28 14:48 | 41.61120 | 16.99956 | 37014 ft | 432 kts | 214° |
| 2026-04-28 14:48 | 41.56040 | 16.95757 | 37014 ft | 429 kts | 219° |
| 2026-04-28 14:49 | 41.51348 | 16.90855 | 37018 ft | 425 kts | 225° |
| 2026-04-28 14:49 | 41.47179 | 16.85345 | 37014 ft | 422 kts | 231° |
| 2026-04-28 14:50 | 41.43183 | 16.79539 | 37008 ft | 423 kts | 231° |
| 2026-04-28 14:50 | 41.39208 | 16.73776 | 37010 ft | 424 kts | 231° |
| 2026-04-28 14:51 | 41.35206 | 16.67995 | 37007 ft | 423 kts | 231° |
| 2026-04-28 14:51 | 41.31215 | 16.62240 | 37006 ft | 423 kts | 231° |
| 2026-04-28 14:52 | 41.27195 | 16.56459 | 37012 ft | 423 kts | 231° |
| 2026-04-28 14:52 | 41.23207 | 16.50734 | 36925 ft | 424 kts | 231° |
| 2026-04-28 14:52 | 41.21183 | 16.47833 | 36577 ft | 422 kts | 231° |
| 2026-04-28 14:53 | 41.19197 | 16.44989 | 36193 ft | 420 kts | 231° |
| 2026-04-28 14:53 | 41.17197 | 16.42127 | 35728 ft | 419 kts | 230° |
| 2026-04-28 14:53 | 41.15206 | 16.39277 | 35168 ft | 420 kts | 230° |
| 2026-04-28 14:53 | 41.13215 | 16.36431 | 34565 ft | 422 kts | 230° |
| 2026-04-28 14:54 | 41.11201 | 16.33555 | 33877 ft | 425 kts | 229° |
| 2026-04-28 14:54 | 41.09195 | 16.30695 | 33200 ft | 427 kts | 229° |
| 2026-04-28 14:54 | 41.07150 | 16.27786 | 32526 ft | 428 kts | 229° |
| 2026-04-28 14:54 | 41.05107 | 16.24882 | 31857 ft | 429 kts | 229° |
| 2026-04-28 14:55 | 41.03075 | 16.21996 | 31178 ft | 431 kts | 229° |
| 2026-04-28 14:55 | 41.01020 | 16.19083 | 30571 ft | 430 kts | 229° |
| 2026-04-28 14:55 | 40.98993 | 16.16208 | 30120 ft | 425 kts | 229° |
| 2026-04-28 14:55 | 40.97240 | 16.13092 | 29607 ft | 418 kts | 244° |
| 2026-04-28 14:56 | 40.96260 | 16.09538 | 29137 ft | 411 kts | 261° |
| 2026-04-28 14:56 | 40.96069 | 16.05794 | 28659 ft | 404 kts | 276° |
| 2026-04-28 14:56 | 40.96560 | 16.02169 | 28212 ft | 398 kts | 284° |
| 2026-04-28 14:56 | 40.97185 | 15.98619 | 27760 ft | 395 kts | 284° |
| 2026-04-28 14:57 | 40.97809 | 15.95098 | 27318 ft | 392 kts | 284° |
| 2026-04-28 14:57 | 40.98221 | 15.92742 | 27021 ft | 389 kts | 284° |
| 2026-04-28 14:57 | 40.99017 | 15.88108 | 26436 ft | 385 kts | 283° |
| 2026-04-28 14:57 | 40.99603 | 15.84656 | 25995 ft | 382 kts | 283° |
| 2026-04-28 14:58 | 41.00177 | 15.81250 | 25554 ft | 380 kts | 283° |
| 2026-04-28 14:58 | 41.00749 | 15.77843 | 25112 ft | 377 kts | 283° |
| 2026-04-28 14:58 | 41.01317 | 15.74453 | 24658 ft | 375 kts | 283° |
| 2026-04-28 14:58 | 41.01886 | 15.71051 | 24209 ft | 372 kts | 283° |
| 2026-04-28 14:59 | 41.02445 | 15.67718 | 23771 ft | 370 kts | 283° |
| 2026-04-28 14:59 | 41.03000 | 15.64405 | 23336 ft | 368 kts | 283° |
| 2026-04-28 14:59 | 41.03548 | 15.61128 | 22909 ft | 365 kts | 283° |
| 2026-04-28 14:59 | 41.04097 | 15.57830 | 22479 ft | 363 kts | 283° |
| 2026-04-28 15:00 | 41.04637 | 15.54586 | 22053 ft | 360 kts | 283° |
| 2026-04-28 15:00 | 41.05176 | 15.51333 | 21625 ft | 358 kts | 283° |
| 2026-04-28 15:00 | 41.05705 | 15.48142 | 21202 ft | 355 kts | 283° |
| 2026-04-28 15:00 | 41.06234 | 15.44942 | 20771 ft | 353 kts | 283° |
| 2026-04-28 15:01 | 41.06755 | 15.41780 | 20346 ft | 351 kts | 283° |
| 2026-04-28 15:01 | 41.07278 | 15.38600 | 19920 ft | 349 kts | 283° |
| 2026-04-28 15:01 | 41.07795 | 15.35451 | 19496 ft | 347 kts | 283° |
| 2026-04-28 15:01 | 41.08306 | 15.32330 | 19071 ft | 345 kts | 282° |
| 2026-04-28 15:02 | 41.08786 | 15.29229 | 18632 ft | 344 kts | 278° |
| 2026-04-28 15:02 | 41.08622 | 15.26084 | 18084 ft | 347 kts | 252° |
| 2026-04-28 15:02 | 41.07468 | 15.23280 | 17611 ft | 348 kts | 237° |
| 2026-04-28 15:02 | 41.06116 | 15.20633 | 17150 ft | 345 kts | 238° |
| 2026-04-28 15:03 | 41.04795 | 15.17956 | 16203 ft | 345 kts | 238° |
| 2026-04-28 15:03 | 41.03519 | 15.15295 | 15016 ft | 349 kts | 239° |
| 2026-04-28 15:03 | 41.02229 | 15.12562 | 13983 ft | 345 kts | 239° |
| 2026-04-28 15:03 | 41.00979 | 15.09891 | 13028 ft | 340 kts | 239° |
| 2026-04-28 15:04 | 40.99762 | 15.07278 | 12126 ft | 334 kts | 238° |
| 2026-04-28 15:04 | 40.98552 | 15.04678 | 11429 ft | 322 kts | 238° |
| 2026-04-28 15:04 | 40.97381 | 15.02161 | 10478 ft | 320 kts | 238° |
| 2026-04-28 15:04 | 40.96231 | 14.99690 | 10116 ft | 310 kts | 238° |
| 2026-04-28 15:05 | 40.95130 | 14.97327 | 10056 ft | 294 kts | 238° |
| 2026-04-28 15:05 | 40.94079 | 14.95074 | 9910 ft | 283 kts | 238° |
| 2026-04-28 15:05 | 40.93036 | 14.92837 | 9563 ft | 281 kts | 238° |
| 2026-04-28 15:05 | 40.92022 | 14.90665 | 9223 ft | 279 kts | 238° |
| 2026-04-28 15:06 | 40.90998 | 14.88476 | 8891 ft | 277 kts | 238° |
| 2026-04-28 15:06 | 40.90000 | 14.86342 | 8559 ft | 275 kts | 238° |
| 2026-04-28 15:06 | 40.88984 | 14.84171 | 8223 ft | 273 kts | 238° |
| 2026-04-28 15:06 | 40.87968 | 14.82003 | 8014 ft | 275 kts | 238° |
| 2026-04-28 15:07 | 40.86955 | 14.79843 | 8008 ft | 278 kts | 238° |
| 2026-04-28 15:07 | 40.85939 | 14.77679 | 8007 ft | 279 kts | 238° |
| 2026-04-28 15:07 | 40.84916 | 14.75503 | 8005 ft | 279 kts | 238° |
| 2026-04-28 15:07 | 40.83876 | 14.73292 | 8006 ft | 279 kts | 238° |
| 2026-04-28 15:08 | 40.82848 | 14.71108 | 8000 ft | 279 kts | 238° |
| 2026-04-28 15:08 | 40.81860 | 14.68918 | 7988 ft | 275 kts | 245° |
| 2026-04-28 15:08 | 40.81491 | 14.66554 | 7981 ft | 259 kts | 272° |
| 2026-04-28 15:08 | 40.81903 | 14.64312 | 7935 ft | 249 kts | 297° |
| 2026-04-28 15:09 | 40.82991 | 14.62540 | 7809 ft | 249 kts | 323° |
| 2026-04-28 15:09 | 40.84526 | 14.61451 | 7659 ft | 245 kts | 336° |
| 2026-04-28 15:09 | 40.86080 | 14.60580 | 7308 ft | 246 kts | 336° |
| 2026-04-28 15:09 | 40.87137 | 14.59994 | 7059 ft | 246 kts | 336° |
| 2026-04-28 15:10 | 40.89225 | 14.58841 | 6551 ft | 237 kts | 335° |
| 2026-04-28 15:10 | 40.90667 | 14.57858 | 6184 ft | 229 kts | 328° |
| 2026-04-28 15:10 | 40.92003 | 14.56773 | 5750 ft | 226 kts | 327° |
| 2026-04-28 15:10 | 40.93332 | 14.55680 | 5073 ft | 224 kts | 328° |
| 2026-04-28 15:11 | 40.94662 | 14.54602 | 4386 ft | 223 kts | 329° |
| 2026-04-28 15:11 | 40.95980 | 14.53552 | 3796 ft | 218 kts | 330° |
| 2026-04-28 15:11 | 40.97230 | 14.52565 | 3818 ft | 201 kts | 328° |
| 2026-04-28 15:11 | 40.98170 | 14.51304 | 3825 ft | 193 kts | 290° |
| 2026-04-28 15:12 | 40.98222 | 14.49564 | 3860 ft | 193 kts | 254° |
| 2026-04-28 15:12 | 40.97615 | 14.47943 | 3670 ft | 200 kts | 239° |
| 2026-04-28 15:12 | 40.96843 | 14.46402 | 3346 ft | 199 kts | 236° |
| 2026-04-28 15:12 | 40.96084 | 14.44906 | 3028 ft | 197 kts | 237° |
| 2026-04-28 15:13 | 40.95341 | 14.43382 | 2720 ft | 197 kts | 238° |
| 2026-04-28 15:13 | 40.94621 | 14.41859 | 2414 ft | 188 kts | 239° |
| 2026-04-28 15:13 | 40.93955 | 14.40438 | 2165 ft | 177 kts | 238° |
| 2026-04-28 15:13 | 40.93315 | 14.39076 | 1912 ft | 165 kts | 238° |
| 2026-04-28 15:14 | 40.92711 | 14.37793 | 1677 ft | 164 kts | 238° |
| 2026-04-28 15:14 | 40.92126 | 14.36552 | 1440 ft | 155 kts | 238° |
| 2026-04-28 15:14 | 40.91572 | 14.35375 | 1206 ft | 141 kts | 238° |
| 2026-04-28 15:14 | 40.91074 | 14.34318 | 1009 ft | 134 kts | 237° |
| 2026-04-28 15:15 | 40.90582 | 14.33272 | 820 ft | 133 kts | 237° |
| 2026-04-28 15:15 | 40.90252 | 14.32573 | 707 ft | 132 kts | 236° |
| 2026-04-28 15:15 | 40.89601 | 14.31184 | 441 ft | 132 kts | 236° |
| 2026-04-28 15:15 | 40.89124 | 14.30176 | 256 ft | 129 kts | 236° |
| 2026-04-28 15:16 | 40.88710 | 14.29304 | 259 ft | 86 kts | 238° |
| 2026-04-28 15:16 | 40.88469 | 14.28796 | 274 ft | 53 kts | 238° |
| 2026-04-28 15:16 | 40.88292 | 14.28480 | 282 ft | 36 kts | 220° |
| 2026-04-28 15:16 | 40.88112 | 14.28338 | 286 ft | 17 kts | 209° |
| 2026-04-28 15:17 | 40.88074 | 14.28310 | 287 ft | 4 kts | 206° |
| 2026-04-28 15:17 | 40.88053 | 14.28323 | 287 ft | 4 kts | 112° |
| 2026-04-28 15:17 | 40.88031 | 14.28353 | 287 ft | 5 kts | 171° |
| 2026-04-28 15:17 | 40.87990 | 14.28340 | 288 ft | 6 kts | 205° |
| 2026-04-28 15:18 | 40.87958 | 14.28294 | 289 ft | 7 kts | 248° |
| 2026-04-28 15:18 | 40.87958 | 14.28226 | 290 ft | 8 kts | 274° |
| 2026-04-28 15:18 | 40.87964 | 14.28147 | 291 ft | 8 kts | 269° |
| 2026-04-28 15:18 | 40.87933 | 14.28077 | 291 ft | 9 kts | 231° |
| 2026-04-28 15:19 | 40.87892 | 14.28010 | 293 ft | 8 kts | 231° |
| 2026-04-28 15:19 | 40.87862 | 14.27995 | 294 ft | 5 kts | 154° |
| 2026-04-28 15:19 | 40.87831 | 14.28024 | 294 ft | 5 kts | 142° |
| 2026-04-28 15:19 | 40.87814 | 14.28042 | 294 ft | 0 kts | 142° |